Panther Burn, MS

10:23 PM CDT on July 27, 2016 (GMT -0500)
Mid Delta Regional | | Change Station

Elev 131 ft 33.48 °N, 90.99 °W | Updated 30 minutes ago

Mostly Cloudy
Mostly Cloudy
76 °F
Feels Like 76 °F
N
8
Wind Variable Wind from SSW

Today
High -- | Low -- °F
--% Chance of Precip.
Yesterday
High -- | Low -- °F
Precip. -- in
Pressure 29.95 in
Visibility 10.0 miles
Clouds Mostly Cloudy 4600 ft
Dew Point 73 °F
Humidity 91%
Rainfall 1.91 in
Snow Depth Not available.
6:13 AM 8:05 PM
Last Quarter, 37% visible
METAR KGLH 280253Z AUTO 21007KT 10SM BKN046 24/23 A2994 RMK AO2 SLP142 T02440228 53012
Pressure 29.95 in
Visibility 10.0 miles
Clouds Mostly Cloudy 4600 ft
Dew Point 73 °F
Humidity 91%
Rainfall 1.91 in
Snow Depth Not available.
6:13 AM 8:05 PM
Last Quarter, 37% visible
METAR KGLH 280253Z AUTO 21007KT 10SM BKN046 24/23 A2994 RMK AO2 SLP142 T02440228 53012

10-Day Weather Forecast

Almanac

Astronomy

Jul. 27, 2016 Rise Set
Actual Time
Civil Twilight
Nautical Twilight
Astronomical Twilight
Moon
Length of Visible Light
Length of Day
Tomorrow will be .
, % of the Moon is Illuminated

Today's Extremes

State Highs State Lows

Community

WunderPhotos

Upload Photos

1,928,037 photos uploaded!

WunderBlog® & News

Nearby

Air Quality

  Air Quality AQ Index Pollutant
Not available.

Snow Depth

Station Depth Elevation

Earthquake Activity

City Distance Mag. Time & Date
Minimum magnitude displayed is 2.5.

Coastal Water Temperatures

Place Temperature

Stations

Nearby Weather Stations

Station Location Temp. Windchill Dew Point Humidity Wind Precip. Elev Updated Type
                   

Watches & Warnings

There are currently no watches in effect.